sensor_id;sensor_type;location;lat;lon;timestamp;P1;durP1;ratioP1;P2;durP2;ratioP2
67156;SDS011;54086;50.126;8.710;2022-10-31T00:01:28;22.13;;;11.57;;
67156;SDS011;54086;50.126;8.710;2022-10-31T00:03:56;24.20;;;11.65;;
67156;SDS011;54086;50.126;8.710;2022-10-31T00:06:21;21.60;;;10.83;;
67156;SDS011;54086;50.126;8.710;2022-10-31T00:08:51;21.65;;;10.43;;
67156;SDS011;54086;50.126;8.710;2022-10-31T00:11:20;21.23;;;11.25;;
67156;SDS011;54086;50.126;8.710;2022-10-31T00:13:45;22.00;;;11.93;;
67156;SDS011;54086;50.126;8.710;2022-10-31T00:16:18;17.23;;;10.50;;
67156;SDS011;54086;50.126;8.710;2022-10-31T00:18:51;19.52;;;11.23;;
67156;SDS011;54086;50.126;8.710;2022-10-31T00:21:18;19.23;;;10.20;;
67156;SDS011;54086;50.126;8.710;2022-10-31T00:23:44;20.70;;;11.15;;
67156;SDS011;54086;50.126;8.710;2022-10-31T00:26:09;18.70;;;11.20;;
67156;SDS011;54086;50.126;8.710;2022-10-31T00:28:34;20.43;;;11.73;;
67156;SDS011;54086;50.126;8.710;2022-10-31T00:31:00;20.63;;;11.43;;
67156;SDS011;54086;50.126;8.710;2022-10-31T00:33:27;19.88;;;11.50;;
67156;SDS011;54086;50.126;8.710;2022-10-31T00:35:53;19.05;;;11.07;;
67156;SDS011;54086;50.126;8.710;2022-10-31T00:38:18;17.80;;;10.87;;
67156;SDS011;54086;50.126;8.710;2022-10-31T00:40:44;19.63;;;11.17;;
67156;SDS011;54086;50.126;8.710;2022-10-31T00:43:09;20.70;;;11.77;;
67156;SDS011;54086;50.126;8.710;2022-10-31T00:45:34;19.37;;;11.13;;
67156;SDS011;54086;50.126;8.710;2022-10-31T00:48:00;19.27;;;11.40;;
67156;SDS011;54086;50.126;8.710;2022-10-31T00:50:25;20.27;;;11.77;;
67156;SDS011;54086;50.126;8.710;2022-10-31T00:52:50;21.58;;;11.25;;
67156;SDS011;54086;50.126;8.710;2022-10-31T00:55:16;20.50;;;12.23;;
67156;SDS011;54086;50.126;8.710;2022-10-31T00:57:41;20.60;;;11.60;;
67156;SDS011;54086;50.126;8.710;2022-10-31T01:00:07;21.80;;;12.37;;
67156;SDS011;54086;50.126;8.710;2022-10-31T01:02:33;25.73;;;15.50;;
67156;SDS011;54086;50.126;8.710;2022-10-31T01:04:58;26.40;;;15.47;;
67156;SDS011;54086;50.126;8.710;2022-10-31T01:07:23;26.60;;;13.60;;
67156;SDS011;54086;50.126;8.710;2022-10-31T01:09:49;22.70;;;13.60;;
67156;SDS011;54086;50.126;8.710;2022-10-31T01:12:14;21.23;;;12.02;;
67156;SDS011;54086;50.126;8.710;2022-10-31T01:14:43;21.90;;;11.00;;
67156;SDS011;54086;50.126;8.710;2022-10-31T01:17:09;21.55;;;11.68;;
67156;SDS011;54086;50.126;8.710;2022-10-31T01:19:35;18.03;;;11.10;;
67156;SDS011;54086;50.126;8.710;2022-10-31T01:22:01;17.42;;;11.35;;
67156;SDS011;54086;50.126;8.710;2022-10-31T01:24:26;19.00;;;10.47;;
67156;SDS011;54086;50.126;8.710;2022-10-31T01:26:51;19.83;;;10.93;;
67156;SDS011;54086;50.126;8.710;2022-10-31T01:29:17;19.77;;;10.67;;
67156;SDS011;54086;50.126;8.710;2022-10-31T01:31:42;21.23;;;11.40;;
67156;SDS011;54086;50.126;8.710;2022-10-31T01:34:07;22.57;;;12.03;;
67156;SDS011;54086;50.126;8.710;2022-10-31T01:36:38;19.48;;;10.38;;
67156;SDS011;54086;50.126;8.710;2022-10-31T01:39:09;19.23;;;10.88;;
67156;SDS011;54086;50.126;8.710;2022-10-31T01:41:37;18.80;;;11.27;;
67156;SDS011;54086;50.126;8.710;2022-10-31T01:46:43;19.75;;;10.40;;
67156;SDS011;54086;50.126;8.710;2022-10-31T01:49:35;19.02;;;10.88;;
67156;SDS011;54086;50.126;8.710;2022-10-31T01:52:05;22.17;;;11.45;;
67156;SDS011;54086;50.126;8.710;2022-10-31T01:57:33;17.07;;;11.20;;
67156;SDS011;54086;50.126;8.710;2022-10-31T02:00:06;19.30;;;11.25;;
67156;SDS011;54086;50.126;8.710;2022-10-31T02:02:33;21.33;;;10.98;;
67156;SDS011;54086;50.126;8.710;2022-10-31T02:04:59;22.77;;;11.93;;
67156;SDS011;54086;50.126;8.710;2022-10-31T02:07:31;19.27;;;11.65;;
67156;SDS011;54086;50.126;8.710;2022-10-31T02:10:02;20.10;;;10.85;;
67156;SDS011;54086;50.126;8.710;2022-10-31T02:12:28;23.92;;;11.40;;
67156;SDS011;54086;50.126;8.710;2022-10-31T02:14:56;16.23;;;10.60;;
67156;SDS011;54086;50.126;8.710;2022-10-31T02:17:22;20.85;;;11.48;;
67156;SDS011;54086;50.126;8.710;2022-10-31T02:30:23;18.53;;;9.87;;
67156;SDS011;54086;50.126;8.710;2022-10-31T02:38:21;16.30;;;9.20;;
67156;SDS011;54086;50.126;8.710;2022-10-31T02:41:04;17.83;;;9.32;;
67156;SDS011;54086;50.126;8.710;2022-10-31T02:51:52;15.65;;;9.07;;
67156;SDS011;54086;50.126;8.710;2022-10-31T02:54:18;15.07;;;8.90;;
67156;SDS011;54086;50.126;8.710;2022-10-31T02:56:48;19.95;;;8.13;;
67156;SDS011;54086;50.126;8.710;2022-10-31T02:59:16;14.00;;;8.05;;
67156;SDS011;54086;50.126;8.710;2022-10-31T03:01:48;16.38;;;8.25;;
67156;SDS011;54086;50.126;8.710;2022-10-31T03:09:23;16.10;;;8.10;;
67156;SDS011;54086;50.126;8.710;2022-10-31T03:17:41;19.20;;;8.15;;
67156;SDS011;54086;50.126;8.710;2022-10-31T03:20:24;12.60;;;6.80;;
67156;SDS011;54086;50.126;8.710;2022-10-31T03:22:55;13.02;;;7.20;;
67156;SDS011;54086;50.126;8.710;2022-10-31T03:25:22;14.80;;;6.97;;
67156;SDS011;54086;50.126;8.710;2022-10-31T03:27:47;15.25;;;7.78;;
67156;SDS011;54086;50.126;8.710;2022-10-31T03:30:15;14.80;;;8.15;;
67156;SDS011;54086;50.126;8.710;2022-10-31T03:32:46;14.30;;;7.88;;
67156;SDS011;54086;50.126;8.710;2022-10-31T03:35:14;17.40;;;8.30;;
67156;SDS011;54086;50.126;8.710;2022-10-31T03:37:42;14.60;;;8.53;;
67156;SDS011;54086;50.126;8.710;2022-10-31T03:40:08;16.60;;;8.18;;
67156;SDS011;54086;50.126;8.710;2022-10-31T03:42:37;13.53;;;7.70;;
67156;SDS011;54086;50.126;8.710;2022-10-31T03:47:38;14.38;;;7.68;;
67156;SDS011;54086;50.126;8.710;2022-10-31T03:50:05;16.30;;;7.88;;
67156;SDS011;54086;50.126;8.710;2022-10-31T03:55:07;18.93;;;8.27;;
67156;SDS011;54086;50.126;8.710;2022-10-31T03:57:39;14.07;;;7.80;;
67156;SDS011;54086;50.126;8.710;2022-10-31T04:00:18;16.00;;;8.13;;
67156;SDS011;54086;50.126;8.710;2022-10-31T04:03:06;14.68;;;8.57;;
67156;SDS011;54086;50.126;8.710;2022-10-31T04:05:32;15.60;;;7.53;;
67156;SDS011;54086;50.126;8.710;2022-10-31T04:07:59;14.25;;;8.15;;
67156;SDS011;54086;50.126;8.710;2022-10-31T04:10:27;17.05;;;9.25;;
67156;SDS011;54086;50.126;8.710;2022-10-31T04:12:58;16.67;;;8.02;;
67156;SDS011;54086;50.126;8.710;2022-10-31T04:15:28;16.48;;;8.48;;
67156;SDS011;54086;50.126;8.710;2022-10-31T04:17:55;17.13;;;7.90;;
67156;SDS011;54086;50.126;8.710;2022-10-31T04:20:33;16.02;;;8.20;;
67156;SDS011;54086;50.126;8.710;2022-10-31T04:23:03;17.10;;;8.32;;
67156;SDS011;54086;50.126;8.710;2022-10-31T04:25:29;15.07;;;8.70;;
67156;SDS011;54086;50.126;8.710;2022-10-31T04:27:55;15.77;;;9.67;;
67156;SDS011;54086;50.126;8.710;2022-10-31T04:30:20;17.30;;;8.67;;
67156;SDS011;54086;50.126;8.710;2022-10-31T04:32:46;20.50;;;8.38;;
67156;SDS011;54086;50.126;8.710;2022-10-31T04:35:11;19.07;;;8.97;;
67156;SDS011;54086;50.126;8.710;2022-10-31T04:37:36;14.30;;;8.70;;
67156;SDS011;54086;50.126;8.710;2022-10-31T04:40:02;14.77;;;8.40;;
67156;SDS011;54086;50.126;8.710;2022-10-31T04:42:29;14.43;;;8.55;;
67156;SDS011;54086;50.126;8.710;2022-10-31T04:44:55;14.90;;;9.48;;
67156;SDS011;54086;50.126;8.710;2022-10-31T04:47:20;17.43;;;9.57;;
67156;SDS011;54086;50.126;8.710;2022-10-31T04:49:45;22.53;;;11.70;;
67156;SDS011;54086;50.126;8.710;2022-10-31T04:52:11;25.20;;;14.73;;
67156;SDS011;54086;50.126;8.710;2022-10-31T04:54:36;22.30;;;14.07;;
67156;SDS011;54086;50.126;8.710;2022-10-31T04:57:01;26.17;;;13.63;;
67156;SDS011;54086;50.126;8.710;2022-10-31T04:59:27;26.27;;;14.23;;
67156;SDS011;54086;50.126;8.710;2022-10-31T05:01:52;23.30;;;13.10;;
67156;SDS011;54086;50.126;8.710;2022-10-31T05:04:17;26.20;;;13.73;;
67156;SDS011;54086;50.126;8.710;2022-10-31T05:06:43;24.50;;;15.70;;
67156;SDS011;54086;50.126;8.710;2022-10-31T05:09:08;20.60;;;12.33;;
67156;SDS011;54086;50.126;8.710;2022-10-31T05:11:33;23.63;;;15.77;;
67156;SDS011;54086;50.126;8.710;2022-10-31T05:13:59;25.35;;;15.20;;
67156;SDS011;54086;50.126;8.710;2022-10-31T05:16:24;23.60;;;14.17;;
67156;SDS011;54086;50.126;8.710;2022-10-31T05:18:49;25.13;;;14.40;;
67156;SDS011;54086;50.126;8.710;2022-10-31T05:21:14;22.20;;;13.77;;
67156;SDS011;54086;50.126;8.710;2022-10-31T05:23:40;25.70;;;13.93;;
67156;SDS011;54086;50.126;8.710;2022-10-31T05:26:05;19.33;;;12.77;;
67156;SDS011;54086;50.126;8.710;2022-10-31T05:28:30;22.47;;;13.17;;
67156;SDS011;54086;50.126;8.710;2022-10-31T05:30:56;19.50;;;12.53;;
67156;SDS011;54086;50.126;8.710;2022-10-31T05:33:21;19.37;;;11.70;;
67156;SDS011;54086;50.126;8.710;2022-10-31T05:35:46;20.83;;;12.17;;
67156;SDS011;54086;50.126;8.710;2022-10-31T05:38:12;20.88;;;11.50;;
67156;SDS011;54086;50.126;8.710;2022-10-31T05:40:38;19.17;;;11.17;;
67156;SDS011;54086;50.126;8.710;2022-10-31T05:43:03;20.80;;;11.40;;
67156;SDS011;54086;50.126;8.710;2022-10-31T05:45:28;19.07;;;11.43;;
67156;SDS011;54086;50.126;8.710;2022-10-31T05:47:56;19.30;;;11.40;;
67156;SDS011;54086;50.126;8.710;2022-10-31T05:50:22;20.50;;;11.38;;
67156;SDS011;54086;50.126;8.710;2022-10-31T05:52:58;22.75;;;11.75;;
67156;SDS011;54086;50.126;8.710;2022-10-31T05:55:25;19.80;;;10.73;;
67156;SDS011;54086;50.126;8.710;2022-10-31T05:57:51;17.08;;;10.32;;
67156;SDS011;54086;50.126;8.710;2022-10-31T06:00:17;19.57;;;10.87;;
67156;SDS011;54086;50.126;8.710;2022-10-31T06:02:43;18.52;;;10.07;;
67156;SDS011;54086;50.126;8.710;2022-10-31T06:05:08;19.87;;;10.37;;
67156;SDS011;54086;50.126;8.710;2022-10-31T06:07:34;20.80;;;10.97;;
67156;SDS011;54086;50.126;8.710;2022-10-31T06:10:00;18.70;;;10.43;;
67156;SDS011;54086;50.126;8.710;2022-10-31T06:12:28;19.38;;;10.57;;
67156;SDS011;54086;50.126;8.710;2022-10-31T06:14:53;18.37;;;10.23;;
67156;SDS011;54086;50.126;8.710;2022-10-31T06:17:25;16.77;;;10.18;;
67156;SDS011;54086;50.126;8.710;2022-10-31T06:19:50;18.93;;;10.30;;
67156;SDS011;54086;50.126;8.710;2022-10-31T06:22:15;19.90;;;10.27;;
67156;SDS011;54086;50.126;8.710;2022-10-31T06:24:41;20.97;;;10.27;;
67156;SDS011;54086;50.126;8.710;2022-10-31T06:27:06;19.93;;;10.20;;
67156;SDS011;54086;50.126;8.710;2022-10-31T06:29:31;20.70;;;10.63;;
67156;SDS011;54086;50.126;8.710;2022-10-31T06:31:57;22.70;;;10.73;;
67156;SDS011;54086;50.126;8.710;2022-10-31T06:34:22;21.70;;;10.55;;
67156;SDS011;54086;50.126;8.710;2022-10-31T06:36:48;20.63;;;10.50;;
67156;SDS011;54086;50.126;8.710;2022-10-31T06:39:14;19.63;;;10.30;;
67156;SDS011;54086;50.126;8.710;2022-10-31T06:41:39;22.50;;;10.13;;
67156;SDS011;54086;50.126;8.710;2022-10-31T06:44:06;19.48;;;10.07;;
67156;SDS011;54086;50.126;8.710;2022-10-31T06:46:32;18.63;;;10.10;;
67156;SDS011;54086;50.126;8.710;2022-10-31T06:49:00;21.17;;;9.15;;
67156;SDS011;54086;50.126;8.710;2022-10-31T06:51:26;26.40;;;10.73;;
67156;SDS011;54086;50.126;8.710;2022-10-31T06:53:51;21.20;;;9.13;;
67156;SDS011;54086;50.126;8.710;2022-10-31T06:56:17;16.37;;;8.43;;
67156;SDS011;54086;50.126;8.710;2022-10-31T06:58:42;16.97;;;8.60;;
67156;SDS011;54086;50.126;8.710;2022-10-31T07:01:07;18.03;;;8.40;;
67156;SDS011;54086;50.126;8.710;2022-10-31T07:03:33;19.57;;;8.17;;
67156;SDS011;54086;50.126;8.710;2022-10-31T07:05:58;19.23;;;7.87;;
67156;SDS011;54086;50.126;8.710;2022-10-31T07:08:23;23.57;;;10.57;;
67156;SDS011;54086;50.126;8.710;2022-10-31T07:10:53;19.23;;;9.30;;
67156;SDS011;54086;50.126;8.710;2022-10-31T07:13:20;16.27;;;8.38;;
67156;SDS011;54086;50.126;8.710;2022-10-31T07:15:50;21.17;;;9.35;;
67156;SDS011;54086;50.126;8.710;2022-10-31T07:18:23;16.15;;;9.40;;
67156;SDS011;54086;50.126;8.710;2022-10-31T07:20:49;18.53;;;9.27;;
67156;SDS011;54086;50.126;8.710;2022-10-31T07:23:14;17.43;;;8.87;;
67156;SDS011;54086;50.126;8.710;2022-10-31T07:25:40;18.63;;;8.77;;
67156;SDS011;54086;50.126;8.710;2022-10-31T07:28:05;17.25;;;8.90;;
67156;SDS011;54086;50.126;8.710;2022-10-31T07:30:31;19.13;;;9.05;;
67156;SDS011;54086;50.126;8.710;2022-10-31T07:32:57;24.37;;;10.37;;
67156;SDS011;54086;50.126;8.710;2022-10-31T07:35:24;24.80;;;11.53;;
67156;SDS011;54086;50.126;8.710;2022-10-31T07:37:50;18.73;;;10.23;;
67156;SDS011;54086;50.126;8.710;2022-10-31T07:40:17;23.75;;;12.07;;
67156;SDS011;54086;50.126;8.710;2022-10-31T07:42:44;20.90;;;13.02;;
67156;SDS011;54086;50.126;8.710;2022-10-31T07:45:11;18.75;;;12.05;;
67156;SDS011;54086;50.126;8.710;2022-10-31T07:47:41;22.07;;;10.50;;
67156;SDS011;54086;50.126;8.710;2022-10-31T07:50:09;20.27;;;10.05;;
67156;SDS011;54086;50.126;8.710;2022-10-31T07:52:36;16.25;;;8.40;;
67156;SDS011;54086;50.126;8.710;2022-10-31T07:55:01;18.43;;;8.50;;
67156;SDS011;54086;50.126;8.710;2022-10-31T07:57:27;16.50;;;8.25;;
67156;SDS011;54086;50.126;8.710;2022-10-31T07:59:52;19.87;;;8.70;;
67156;SDS011;54086;50.126;8.710;2022-10-31T08:02:18;15.10;;;8.40;;
67156;SDS011;54086;50.126;8.710;2022-10-31T08:04:43;15.80;;;7.60;;
67156;SDS011;54086;50.126;8.710;2022-10-31T08:07:08;15.30;;;7.97;;
67156;SDS011;54086;50.126;8.710;2022-10-31T08:09:34;18.33;;;7.90;;
67156;SDS011;54086;50.126;8.710;2022-10-31T08:11:59;16.63;;;8.03;;
67156;SDS011;54086;50.126;8.710;2022-10-31T08:14:26;15.63;;;8.52;;
67156;SDS011;54086;50.126;8.710;2022-10-31T08:16:52;16.63;;;9.70;;
67156;SDS011;54086;50.126;8.710;2022-10-31T08:19:18;16.52;;;9.27;;
67156;SDS011;54086;50.126;8.710;2022-10-31T08:21:43;16.27;;;8.63;;
67156;SDS011;54086;50.126;8.710;2022-10-31T08:24:09;18.33;;;9.60;;
67156;SDS011;54086;50.126;8.710;2022-10-31T08:26:34;16.00;;;8.43;;
67156;SDS011;54086;50.126;8.710;2022-10-31T08:29:00;21.53;;;10.13;;
67156;SDS011;54086;50.126;8.710;2022-10-31T08:31:26;21.70;;;10.30;;
67156;SDS011;54086;50.126;8.710;2022-10-31T08:33:52;17.33;;;10.32;;
67156;SDS011;54086;50.126;8.710;2022-10-31T08:36:21;15.95;;;10.00;;
67156;SDS011;54086;50.126;8.710;2022-10-31T08:38:47;18.88;;;10.57;;
67156;SDS011;54086;50.126;8.710;2022-10-31T08:41:13;20.20;;;11.10;;
67156;SDS011;54086;50.126;8.710;2022-10-31T08:43:38;19.35;;;11.27;;
67156;SDS011;54086;50.126;8.710;2022-10-31T08:46:04;19.57;;;11.60;;
67156;SDS011;54086;50.126;8.710;2022-10-31T08:48:29;19.73;;;10.73;;
67156;SDS011;54086;50.126;8.710;2022-10-31T08:50:57;19.37;;;11.03;;
67156;SDS011;54086;50.126;8.710;2022-10-31T08:53:23;21.23;;;11.98;;
67156;SDS011;54086;50.126;8.710;2022-10-31T08:55:49;24.02;;;11.27;;
67156;SDS011;54086;50.126;8.710;2022-10-31T08:58:15;17.77;;;10.70;;
67156;SDS011;54086;50.126;8.710;2022-10-31T09:00:42;20.20;;;11.57;;
67156;SDS011;54086;50.126;8.710;2022-10-31T09:03:10;19.48;;;11.27;;
67156;SDS011;54086;50.126;8.710;2022-10-31T09:05:37;18.43;;;11.30;;
67156;SDS011;54086;50.126;8.710;2022-10-31T09:08:04;21.38;;;12.23;;
67156;SDS011;54086;50.126;8.710;2022-10-31T09:10:30;19.38;;;12.38;;
67156;SDS011;54086;50.126;8.710;2022-10-31T09:13:03;20.50;;;12.20;;
67156;SDS011;54086;50.126;8.710;2022-10-31T09:15:35;19.10;;;11.77;;
67156;SDS011;54086;50.126;8.710;2022-10-31T09:18:03;22.02;;;13.18;;
67156;SDS011;54086;50.126;8.710;2022-10-31T09:20:29;23.10;;;13.70;;
67156;SDS011;54086;50.126;8.710;2022-10-31T09:22:56;20.00;;;13.27;;
67156;SDS011;54086;50.126;8.710;2022-10-31T09:25:26;28.55;;;14.18;;
67156;SDS011;54086;50.126;8.710;2022-10-31T09:28:02;23.47;;;12.43;;
67156;SDS011;54086;50.126;8.710;2022-10-31T09:30:29;20.85;;;11.30;;
67156;SDS011;54086;50.126;8.710;2022-10-31T09:32:57;25.08;;;11.27;;
67156;SDS011;54086;50.126;8.710;2022-10-31T09:35:23;21.15;;;12.27;;
67156;SDS011;54086;50.126;8.710;2022-10-31T09:37:58;20.67;;;11.50;;
67156;SDS011;54086;50.126;8.710;2022-10-31T09:40:42;18.65;;;11.32;;
67156;SDS011;54086;50.126;8.710;2022-10-31T09:51:20;19.33;;;11.57;;
67156;SDS011;54086;50.126;8.710;2022-10-31T09:54:12;21.67;;;10.35;;
67156;SDS011;54086;50.126;8.710;2022-10-31T09:56:39;18.88;;;10.77;;
67156;SDS011;54086;50.126;8.710;2022-10-31T09:59:05;18.70;;;10.27;;
67156;SDS011;54086;50.126;8.710;2022-10-31T10:01:47;17.73;;;10.32;;
67156;SDS011;54086;50.126;8.710;2022-10-31T10:05:18;20.77;;;11.02;;
67156;SDS011;54086;50.126;8.710;2022-10-31T10:07:30;18.77;;;10.57;;
67156;SDS011;54086;50.126;8.710;2022-10-31T10:16:12;18.15;;;10.25;;
67156;SDS011;54086;50.126;8.710;2022-10-31T10:19:11;17.38;;;10.25;;
67156;SDS011;54086;50.126;8.710;2022-10-31T10:22:08;34.63;;;11.20;;
67156;SDS011;54086;50.126;8.710;2022-10-31T10:29:53;18.60;;;10.73;;
67156;SDS011;54086;50.126;8.710;2022-10-31T10:32:28;23.35;;;11.18;;
67156;SDS011;54086;50.126;8.710;2022-10-31T10:34:57;22.23;;;10.90;;
67156;SDS011;54086;50.126;8.710;2022-10-31T10:37:38;19.38;;;10.50;;
67156;SDS011;54086;50.126;8.710;2022-10-31T10:40:11;19.45;;;11.20;;
67156;SDS011;54086;50.126;8.710;2022-10-31T10:42:38;22.90;;;11.13;;
67156;SDS011;54086;50.126;8.710;2022-10-31T10:45:32;17.85;;;10.07;;
67156;SDS011;54086;50.126;8.710;2022-10-31T10:48:36;18.65;;;10.60;;
67156;SDS011;54086;50.126;8.710;2022-10-31T10:51:12;19.40;;;10.77;;
67156;SDS011;54086;50.126;8.710;2022-10-31T10:53:52;33.17;;;11.32;;
67156;SDS011;54086;50.126;8.710;2022-10-31T10:56:35;19.40;;;10.00;;
67156;SDS011;54086;50.126;8.710;2022-10-31T10:59:08;18.40;;;10.32;;
67156;SDS011;54086;50.126;8.710;2022-10-31T11:01:36;17.42;;;10.60;;
67156;SDS011;54086;50.126;8.710;2022-10-31T11:04:05;19.27;;;10.85;;
67156;SDS011;54086;50.126;8.710;2022-10-31T11:07:02;20.92;;;12.63;;
67156;SDS011;54086;50.126;8.710;2022-10-31T11:09:35;23.40;;;11.40;;
67156;SDS011;54086;50.126;8.710;2022-10-31T11:14:56;21.95;;;12.10;;
67156;SDS011;54086;50.126;8.710;2022-10-31T11:17:38;20.25;;;11.45;;
67156;SDS011;54086;50.126;8.710;2022-10-31T11:20:28;19.45;;;11.65;;
67156;SDS011;54086;50.126;8.710;2022-10-31T11:23:00;20.57;;;10.87;;
67156;SDS011;54086;50.126;8.710;2022-10-31T11:25:29;20.05;;;11.98;;
67156;SDS011;54086;50.126;8.710;2022-10-31T11:28:04;34.47;;;15.38;;
67156;SDS011;54086;50.126;8.710;2022-10-31T11:30:47;21.87;;;11.80;;
67156;SDS011;54086;50.126;8.710;2022-10-31T11:35:49;21.15;;;11.55;;
67156;SDS011;54086;50.126;8.710;2022-10-31T11:38:16;21.67;;;13.02;;
67156;SDS011;54086;50.126;8.710;2022-10-31T11:43:54;21.27;;;11.77;;
67156;SDS011;54086;50.126;8.710;2022-10-31T11:46:25;20.95;;;11.50;;
67156;SDS011;54086;50.126;8.710;2022-10-31T11:49:15;22.13;;;11.27;;
67156;SDS011;54086;50.126;8.710;2022-10-31T11:51:51;20.02;;;11.63;;
67156;SDS011;54086;50.126;8.710;2022-10-31T11:54:21;20.00;;;10.83;;
67156;SDS011;54086;50.126;8.710;2022-10-31T11:56:50;19.70;;;11.23;;
67156;SDS011;54086;50.126;8.710;2022-10-31T11:59:50;19.83;;;11.37;;
67156;SDS011;54086;50.126;8.710;2022-10-31T12:02:17;16.83;;;9.80;;
67156;SDS011;54086;50.126;8.710;2022-10-31T12:04:44;18.55;;;9.60;;
67156;SDS011;54086;50.126;8.710;2022-10-31T12:07:13;21.90;;;11.15;;
67156;SDS011;54086;50.126;8.710;2022-10-31T12:09:38;19.10;;;10.27;;
67156;SDS011;54086;50.126;8.710;2022-10-31T12:12:25;17.45;;;9.95;;
67156;SDS011;54086;50.126;8.710;2022-10-31T12:23:20;17.90;;;9.25;;
67156;SDS011;54086;50.126;8.710;2022-10-31T12:25:57;24.67;;;14.48;;
67156;SDS011;54086;50.126;8.710;2022-10-31T12:46:00;15.93;;;7.87;;
67156;SDS011;54086;50.126;8.710;2022-10-31T12:57:19;21.67;;;8.25;;
67156;SDS011;54086;50.126;8.710;2022-10-31T13:00:10;16.73;;;8.30;;
67156;SDS011;54086;50.126;8.710;2022-10-31T13:05:37;17.80;;;8.80;;
67156;SDS011;54086;50.126;8.710;2022-10-31T13:08:06;16.08;;;8.50;;
67156;SDS011;54086;50.126;8.710;2022-10-31T13:11:53;15.20;;;8.65;;
67156;SDS011;54086;50.126;8.710;2022-10-31T13:13:55;16.23;;;7.60;;
67156;SDS011;54086;50.126;8.710;2022-10-31T13:16:28;14.38;;;7.40;;
67156;SDS011;54086;50.126;8.710;2022-10-31T13:18:57;17.63;;;8.10;;
67156;SDS011;54086;50.126;8.710;2022-10-31T13:24:21;17.10;;;8.65;;
67156;SDS011;54086;50.126;8.710;2022-10-31T13:26:56;15.93;;;7.90;;
67156;SDS011;54086;50.126;8.710;2022-10-31T13:29:28;17.92;;;7.85;;
67156;SDS011;54086;50.126;8.710;2022-10-31T13:32:03;16.27;;;8.05;;
67156;SDS011;54086;50.126;8.710;2022-10-31T13:34:33;15.15;;;7.80;;
67156;SDS011;54086;50.126;8.710;2022-10-31T13:40:12;22.43;;;10.20;;
67156;SDS011;54086;50.126;8.710;2022-10-31T13:42:53;16.85;;;7.70;;
67156;SDS011;54086;50.126;8.710;2022-10-31T13:45:21;19.13;;;8.45;;
67156;SDS011;54086;50.126;8.710;2022-10-31T13:47:55;15.45;;;6.80;;
67156;SDS011;54086;50.126;8.710;2022-10-31T13:50:22;20.02;;;9.75;;
67156;SDS011;54086;50.126;8.710;2022-10-31T13:52:49;21.57;;;8.00;;
67156;SDS011;54086;50.126;8.710;2022-10-31T13:58:03;18.75;;;9.00;;
67156;SDS011;54086;50.126;8.710;2022-10-31T14:01:25;15.80;;;7.20;;
67156;SDS011;54086;50.126;8.710;2022-10-31T14:03:45;16.45;;;8.52;;
67156;SDS011;54086;50.126;8.710;2022-10-31T14:06:12;14.93;;;7.82;;
67156;SDS011;54086;50.126;8.710;2022-10-31T14:08:42;13.45;;;6.90;;
67156;SDS011;54086;50.126;8.710;2022-10-31T14:11:32;15.15;;;7.70;;
67156;SDS011;54086;50.126;8.710;2022-10-31T14:13:58;13.80;;;6.90;;
67156;SDS011;54086;50.126;8.710;2022-10-31T14:16:26;15.10;;;7.22;;
67156;SDS011;54086;50.126;8.710;2022-10-31T14:19:15;18.02;;;6.63;;
67156;SDS011;54086;50.126;8.710;2022-10-31T14:21:44;14.20;;;6.80;;
67156;SDS011;54086;50.126;8.710;2022-10-31T14:24:15;16.65;;;7.10;;
67156;SDS011;54086;50.126;8.710;2022-10-31T14:29:23;14.25;;;7.00;;
67156;SDS011;54086;50.126;8.710;2022-10-31T14:40:04;14.23;;;8.20;;
67156;SDS011;54086;50.126;8.710;2022-10-31T14:48:56;13.88;;;6.97;;
67156;SDS011;54086;50.126;8.710;2022-10-31T14:51:40;12.52;;;7.07;;
67156;SDS011;54086;50.126;8.710;2022-10-31T14:54:11;15.43;;;7.20;;
67156;SDS011;54086;50.126;8.710;2022-10-31T14:56:59;18.42;;;8.30;;
67156;SDS011;54086;50.126;8.710;2022-10-31T14:59:30;19.20;;;8.65;;
67156;SDS011;54086;50.126;8.710;2022-10-31T15:01:58;16.63;;;6.72;;
67156;SDS011;54086;50.126;8.710;2022-10-31T15:04:27;15.23;;;6.45;;
67156;SDS011;54086;50.126;8.710;2022-10-31T15:07:05;13.73;;;6.50;;
67156;SDS011;54086;50.126;8.710;2022-10-31T15:09:36;13.55;;;6.82;;
67156;SDS011;54086;50.126;8.710;2022-10-31T15:12:28;15.57;;;6.63;;
67156;SDS011;54086;50.126;8.710;2022-10-31T15:14:54;15.05;;;7.28;;
67156;SDS011;54086;50.126;8.710;2022-10-31T15:17:24;19.15;;;7.95;;
67156;SDS011;54086;50.126;8.710;2022-10-31T15:19:51;47.17;;;9.70;;
67156;SDS011;54086;50.126;8.710;2022-10-31T15:22:17;16.50;;;6.97;;
67156;SDS011;54086;50.126;8.710;2022-10-31T15:24:47;19.50;;;7.38;;
67156;SDS011;54086;50.126;8.710;2022-10-31T15:27:15;19.73;;;8.18;;
67156;SDS011;54086;50.126;8.710;2022-10-31T15:29:49;16.80;;;7.90;;
67156;SDS011;54086;50.126;8.710;2022-10-31T15:32:20;17.73;;;9.80;;
67156;SDS011;54086;50.126;8.710;2022-10-31T15:34:50;19.00;;;7.55;;
67156;SDS011;54086;50.126;8.710;2022-10-31T15:37:17;16.00;;;8.75;;
67156;SDS011;54086;50.126;8.710;2022-10-31T15:39:45;20.45;;;8.35;;
67156;SDS011;54086;50.126;8.710;2022-10-31T15:42:30;15.38;;;8.07;;
67156;SDS011;54086;50.126;8.710;2022-10-31T15:47:44;17.13;;;7.40;;
67156;SDS011;54086;50.126;8.710;2022-10-31T15:50:18;18.92;;;8.00;;
67156;SDS011;54086;50.126;8.710;2022-10-31T15:52:46;17.70;;;7.88;;
67156;SDS011;54086;50.126;8.710;2022-10-31T15:55:20;20.40;;;8.77;;
67156;SDS011;54086;50.126;8.710;2022-10-31T15:57:51;16.03;;;8.53;;
67156;SDS011;54086;50.126;8.710;2022-10-31T16:05:49;14.20;;;8.30;;
67156;SDS011;54086;50.126;8.710;2022-10-31T16:10:53;13.83;;;8.63;;
67156;SDS011;54086;50.126;8.710;2022-10-31T16:13:22;18.98;;;8.45;;
67156;SDS011;54086;50.126;8.710;2022-10-31T16:15:58;19.20;;;9.52;;
67156;SDS011;54086;50.126;8.710;2022-10-31T16:18:26;15.27;;;8.00;;
67156;SDS011;54086;50.126;8.710;2022-10-31T16:20:53;16.40;;;7.97;;
67156;SDS011;54086;50.126;8.710;2022-10-31T16:23:21;17.40;;;8.23;;
67156;SDS011;54086;50.126;8.710;2022-10-31T16:25:49;18.20;;;7.93;;
67156;SDS011;54086;50.126;8.710;2022-10-31T16:28:19;17.13;;;7.65;;
67156;SDS011;54086;50.126;8.710;2022-10-31T16:30:50;15.40;;;8.02;;
67156;SDS011;54086;50.126;8.710;2022-10-31T16:35:58;19.17;;;8.80;;
67156;SDS011;54086;50.126;8.710;2022-10-31T16:38:25;23.27;;;12.52;;
67156;SDS011;54086;50.126;8.710;2022-10-31T16:40:51;18.30;;;9.87;;
67156;SDS011;54086;50.126;8.710;2022-10-31T16:43:17;16.60;;;9.18;;
67156;SDS011;54086;50.126;8.710;2022-10-31T16:45:45;22.33;;;9.13;;
67156;SDS011;54086;50.126;8.710;2022-10-31T16:48:16;16.42;;;9.38;;
67156;SDS011;54086;50.126;8.710;2022-10-31T16:50:47;18.33;;;9.07;;
67156;SDS011;54086;50.126;8.710;2022-10-31T16:53:14;16.20;;;8.60;;
67156;SDS011;54086;50.126;8.710;2022-10-31T16:55:41;16.75;;;8.88;;
67156;SDS011;54086;50.126;8.710;2022-10-31T16:58:14;16.15;;;9.43;;
67156;SDS011;54086;50.126;8.710;2022-10-31T17:00:42;17.42;;;9.40;;
67156;SDS011;54086;50.126;8.710;2022-10-31T17:03:07;15.53;;;8.83;;
67156;SDS011;54086;50.126;8.710;2022-10-31T17:05:34;18.20;;;9.32;;
67156;SDS011;54086;50.126;8.710;2022-10-31T17:07:59;15.83;;;8.67;;
67156;SDS011;54086;50.126;8.710;2022-10-31T17:10:25;16.83;;;8.73;;
67156;SDS011;54086;50.126;8.710;2022-10-31T17:12:51;16.43;;;8.50;;
67156;SDS011;54086;50.126;8.710;2022-10-31T17:15:21;18.52;;;8.82;;